• Join FlightAware (Why Join?)
  • Login
  • US Flag 
06:20AM EDT


 

Airport Tracker/Info


-or-


 

Live Flight TrackerFlight Track Log ✈ N789EX ✈ 05-Jan-2014 ✈ KMWH - KBFI

Flight Track Log - Related Links

Times and Time Zones

All times are in EST time to prevent confusion due to time zone crossing. See the N789EX flight status page for this flight to view local times or setup timezone preferences in your user account.

Time Position Orientation Groundspeed Altitude Reporting Facility
EST Latitude Longitude Course Direction KTS MPH feet Rate Location/Type
04:16PM 47.5164 -119.3206 35° Northeast 247 284 9,400  Level Seattle Center
04:17PM 47.5672 -119.2686 35° Northeast 248 285 10,000 1,080 Climbing Seattle Center
04:18PM 47.5678 -119.1531 90° East 263 303 11,700 1,500 Climbing Seattle Center
04:19PM 47.5692 -119.0692 89° East 209 241 13,100 1,020 Climbing Seattle Center
04:20PM 47.5694 -118.9836 90° East 208 239 13,800 660 Climbing Seattle Center
04:21PM 47.5697 -118.8822 90° East 245 282 14,500 660 Climbing Seattle Center
04:22PM 47.5686 -118.7742 91° East 257 296 15,200 1,080 Climbing Seattle Center
04:23PM 47.5706 -118.6425 89° East 313 360 16,700 1,320 Climbing Seattle Center
04:24PM 47.5686 -118.4983 91° East 361 415 18,000 1,140 Climbing Seattle Center
04:25PM 47.5683 -118.3536 90° East 402 463 19,100 1,620 Climbing Seattle Center
04:26PM 47.5675 -118.1739 90° East 432 497 21,400 2,460 Climbing Seattle Center
04:27PM 47.5658 -117.9475 91° East 458 527 24,200 2,340 Climbing Seattle Center
04:28PM 47.5650 -117.7542 90° East 468 539 26,200 1,800 Climbing Seattle Center
04:29PM 47.5617 -117.5556 91° East 481 554 27,900 1,620 Climbing Seattle Center
04:30PM 47.5517 -117.3483 94° East 508 585 29,600 1,620 Climbing Seattle Center
04:31PM 47.5397 -117.1289 95° East 513 590 31,300 1,560 Climbing Seattle Center
04:32PM 47.5314 -116.9417 94° East 522 601 32,800 780 Climbing Seattle Center
04:33PM 47.5175 -116.6867 95° East 524 603 33,000 60 Climbing Seattle Center
04:34PM 47.5058 -116.4736 95° East 522 601 33,000  Level Seattle Center
04:35PM 47.4939 -116.2625 95° East 519 597 33,000  Level Seattle Center
04:36PM 47.4825 -116.0511 94° East 519 597 33,000 -60 Level Seattle Center
04:37PM 47.5542 -115.8906 56° Northeast 476 548 32,900  Descending Seattle Center
04:38PM 47.6689 -115.8606 10° North 442 509 33,000  Climbing Seattle Center
04:39PM 47.7639 -115.9442 329° Northwest 418 481 32,900 840 Descending Seattle Center
04:40PM 47.7833 -116.1183 279° West 437 503 34,800 960 Climbing Seattle Center
04:41PM 47.7992 -116.2878 278° West 420 483 34,900  Climbing Seattle Center
04:42PM 47.8169 -116.4539 279° West 413 475 34,900  Level Seattle Center
04:43PM 47.8383 -116.6544 279° West 413 475 34,900 -300 Level Seattle Center
04:44PM 47.8567 -116.8206 279° West 412 474 34,400  Descending Seattle Center
04:45PM 47.8789 -116.9864 281° West 414 476 34,900 240 Climbing Seattle Center
04:46PM 47.8925 -117.1617 277° West 425 489 35,000  Climbing Seattle Center
04:47PM 47.9025 -117.3450 275° West 440 506 34,900 -300 Descending Seattle Center
04:48PM 47.9156 -117.5281 276° West 448 516 34,500 -180 Descending Seattle Center
04:49PM 47.9297 -117.7106 277° West 448 516 34,600 60 Climbing Seattle Center
04:55PM 48.0379 -118.8630 277° West 470 541 35,000 240 Climbing FlightAware ADS-B
04:56PM 48.0438 -118.9770 274° West 458 527 36,300 2,100 Climbing FlightAware ADS-B
04:56PM 48.0502 -119.0720 276° West 448 516 37,400 1,800 Climbing FlightAware ADS-B
04:57PM 48.0575 -119.1680 277° West 434 499 38,200 1,380 Climbing FlightAware ADS-B
04:57PM 48.0644 -119.2570 277° West 428 493 38,900 1,620 Climbing FlightAware ADS-B
04:58PM 48.0712 -119.3470 276° West 415 478 39,900 1,080 Climbing FlightAware ADS-B
04:58PM 48.0778 -119.4330 277° West 416 479 40,000 60 Climbing FlightAware ADS-B
04:59PM 48.0841 -119.5190 276° West 413 475 40,000  Level FlightAware ADS-B
04:59PM 48.0906 -119.6050 276° West 414 476 40,000  Level FlightAware ADS-B
05:00PM 48.0969 -119.6910 276° West 411 473 40,000 -240 Level FlightAware ADS-B
05:00PM 48.1031 -119.7730 276° West 411 473 39,800 -600 Descending FlightAware ADS-B
05:01PM 48.1103 -119.8590 277° West 413 475 39,400 -420 Descending FlightAware ADS-B
05:01PM 48.1181 -119.9460 278° West 419 482 39,400 -120 Level FlightAware ADS-B
05:02PM 48.1248 -120.0120 279° West 418 481 39,300 -480 Descending FlightAware ADS-B
05:02PM 48.1314 -120.0627 281° West 417 480 39,100 -240 Descending FlightAware ADS-B (CYWH)
05:02PM 48.1358 -120.0970 281° West 417 480 39,200 480 Climbing FlightAware ADS-B
05:02PM 48.1440 -120.1650 280° West 420 483 39,400 480 Climbing FlightAware ADS-B
05:03PM 48.1475 -120.2050 277° West 423 487 39,500 660 Climbing FlightAware ADS-B
05:03PM 48.1501 -120.2920 273° West 425 489 39,900 780 Climbing FlightAware ADS-B
05:03PM 48.1504 -120.3157 271° West 425 489 40,000 360 Climbing FlightAware ADS-B (CYWH)
05:04PM 48.1514 -120.3810 271° West 427 491 40,100 180 Climbing FlightAware ADS-B
05:04PM 48.1535 -120.4720 272° West 432 497 40,200 180 Climbing FlightAware ADS-B
05:05PM 48.1573 -120.5670 273° West 438 504 40,300 180 Climbing FlightAware ADS-B
05:05PM 48.1575 -120.5709 274° West 439 505 40,300 180 Level FlightAware ADS-B (EPKK / KRK)
05:05PM 48.1628 -120.6600 275° West 441 507 40,400 240 Climbing FlightAware ADS-B
05:05PM 48.1658 -120.7059 276° West 439 505 40,500 360 Climbing FlightAware ADS-B (CYWH)
05:06PM 48.1685 -120.7510 275° West 439 505 40,600 180 Climbing FlightAware ADS-B
05:06PM 48.1712 -120.7964 275° West 440 506 40,600  Level FlightAware ADS-B (CYWH)
05:06PM 48.1736 -120.8420 275° West 440 506 40,600 120 Level FlightAware ADS-B
05:07PM 48.1776 -120.9196 274° West 434 499 40,700 180 Climbing FlightAware ADS-B (CYWH)
05:07PM 48.1784 -120.9330 275° West 434 499 40,700 -180 Level FlightAware ADS-B
05:07PM 48.1826 -121.0230 274° West 437 503 40,600 -180 Descending FlightAware ADS-B
05:07PM 48.1832 -121.0359 274° West 437 503 40,600 -240 Level FlightAware ADS-B (CYWH)
05:08PM 48.1872 -121.1160 274° West 432 497 40,500 -240 Descending FlightAware ADS-B
05:08PM 48.1924 -121.2050 275° West 437 503 40,400 -180 Descending FlightAware ADS-B
05:08PM 48.1932 -121.2177 275° West 437 503 40,400 -240 Level FlightAware ADS-B (CYWH)
05:09PM 48.1987 -121.2980 276° West 443 510 40,300 -180 Descending FlightAware ADS-B
05:09PM 48.2017 -121.3392 276° West 446 513 40,300  Level FlightAware ADS-B (CYWH)
05:09PM 48.2054 -121.3900 276° West 449 517 40,300 -240 Level FlightAware ADS-B
05:09PM 48.2083 -121.4336 276° West 451 519 40,200 -420 Descending FlightAware ADS-B (CYWH)
05:09PM 48.2086 -121.4370 277° West 451 519 40,200  Level FlightAware ADS-B
05:10PM 48.2111 -121.4590 280° West 449 517 40,200  Level FlightAware ADS-B
05:10PM 48.2180 -121.4910 288° West 446 513 40,200  Level FlightAware ADS-B
05:10PM 48.2187 -121.4933 295° West 443 510 40,200  Level FlightAware ADS-B (CYWH)
05:10PM 48.2260 -121.5120 300° West 445 512 40,200  Level FlightAware ADS-B
05:10PM 48.2337 -121.5260 310° West 445 512 40,200 -420 Level FlightAware ADS-B
05:10PM 48.2477 -121.5440 319° Northwest 446 513 40,100 -360 Descending FlightAware ADS-B
05:10PM 48.2613 -121.5560 330° Northwest 449 517 40,100  Level FlightAware ADS-B
05:10PM 48.2767 -121.5640 341° North 453 521 40,100  Level FlightAware ADS-B
05:11PM 48.2916 -121.5680 350° North 458 527 40,100  Level FlightAware ADS-B
05:11PM 48.3001 -121.5680 360° North 460 529 40,100  Level FlightAware ADS-B
05:11PM 48.3087 -121.5670 North 463 533 40,100  Level FlightAware ADS-B
05:11PM 48.3218 -121.5630 11° North 469 540 40,100  Level FlightAware ADS-B
05:11PM 48.3394 -121.5540 19° North 476 548 40,100  Level FlightAware ADS-B
05:11PM 48.3517 -121.5430 31° Northeast 482 555 40,100  Level FlightAware ADS-B
05:11PM 48.3634 -121.5290 38° Northeast 488 562 40,100  Level FlightAware ADS-B
05:11PM 48.3698 -121.5200 43° Northeast 491 565 40,100  Level FlightAware ADS-B
05:11PM 48.3820 -121.4960 53° Northeast 500 575 40,100  Level FlightAware ADS-B
05:11PM 48.3905 -121.4700 64° Northeast 507 583 40,100 -540 Level FlightAware ADS-B
05:12PM 48.3934 -121.4580 70° East 510 587 40,000 -1,020 Descending FlightAware ADS-B (CYWH)
05:12PM 48.3951 -121.4490 74° East 511 588 40,000  Level FlightAware ADS-B
05:12PM 48.4071 -121.3800 75° East 517 595 40,000  Level FlightAware ADS-B
05:12PM 48.4128 -121.3250 81° East 523 602 40,000  Level FlightAware ADS-B
05:12PM 48.4133 -121.3000 88° East 526 605 40,000  Level FlightAware ADS-B
05:12PM 48.4129 -121.2820 92° East 528 608 40,000  Level FlightAware ADS-B
05:13PM 48.4054 -121.1650 95° East 531 611 40,000  Level FlightAware ADS-B
05:13PM 48.3966 -121.0520 97° East 533 613 40,000  Level FlightAware ADS-B
05:13PM 48.3963 -121.0485 97° East 533 613 40,000  Level FlightAware ADS-B (CYWH)
05:14PM 48.3864 -120.9360 98° East 532 612 40,000  Level FlightAware ADS-B
05:14PM 48.3837 -120.9056 98° East 531 611 40,000  Level FlightAware ADS-B (CYWH)
05:14PM 48.3760 -120.8260 98° East 534 615 40,000  Level FlightAware ADS-B
05:15PM 48.3689 -120.7541 98° East 535 616 40,000  Level FlightAware ADS-B (CYWH)
05:15PM 48.3648 -120.7140 99° East 535 616 40,000  Level FlightAware ADS-B
05:15PM 48.3535 -120.6040 99° East 535 616 40,000  Level FlightAware ADS-B
05:16PM 48.3502 -120.5731 99° East 534 615 40,000 -240 Level FlightAware ADS-B (CYWH)
05:16PM 48.3418 -120.4930 99° East 533 613 39,900  Descending FlightAware ADS-B
05:16PM 48.3307 -120.3830 99° East 527 606 40,000  Climbing FlightAware ADS-B
05:17PM 48.3189 -120.2750 99° East 527 606 39,900 -180 Descending FlightAware ADS-B
05:17PM 48.3173 -120.2602 99° East 527 606 39,900 -180 Level FlightAware ADS-B (CYWH)
05:18PM 48.3048 -120.1350 98° East 524 603 39,800  Descending FlightAware ADS-B
05:18PM 48.3027 -120.1121 98° East 522 601 39,900 -240 Climbing FlightAware ADS-B (CYWH)
05:18PM 48.2942 -120.0270 98° East 524 603 39,700 -180 Descending FlightAware ADS-B
05:19PM 48.2737 -119.8340 99° East 523 602 39,700 120 Level FlightAware ADS-B
05:20PM 48.2591 -119.6880 98° East 521 600 39,900 120 Climbing FlightAware ADS-B
05:20PM 48.2505 -119.5780 97° East 522 601 39,900 -120 Level FlightAware ADS-B
05:21PM 48.2421 -119.4670 96° East 525 604 39,800 -540 Descending FlightAware ADS-B
05:21PM 48.2328 -119.3540 97° East 531 611 39,400 -420 Descending FlightAware ADS-B
05:22PM 48.2243 -119.2420 96° East 528 608 39,400  Level FlightAware ADS-B
05:22PM 48.2159 -119.1270 96° East 528 608 39,400 120 Level FlightAware ADS-B
05:23PM 48.2038 -118.9700 97° East 526 605 39,600 -120 Climbing FlightAware ADS-B
05:24PM 48.1897 -118.8281 97° East 526 605 39,300 240 Descending Seattle Center
05:25PM 48.1689 -118.6133 98° East 520 598 40,100 420 Climbing Seattle Center
05:26PM 48.1403 -118.4033 101° East 515 593 40,200 -180 Climbing Seattle Center
05:27PM 48.1200 -118.1933 98° East 512 589 39,800 -180 Descending Seattle Center
05:28PM 48.0947 -117.9881 100° East 503 579 39,900 -60 Climbing Seattle Center
05:29PM 48.0667 -117.7783 101° East 511 588 39,700  Descending Seattle Center
05:30PM 48.0356 -117.5728 103° East 510 587 39,900  Climbing Seattle Center
05:31PM 48.0061 -117.3772 103° East 490 564 39,700 -180 Descending Seattle Center
05:32PM 47.9794 -117.1778 101° East 487 560 39,600 -60 Descending Seattle Center
05:33PM 47.9519 -116.9772 101° East 488 562 39,600 -360 Level Seattle Center
05:34PM 47.9306 -116.7775 99° East 485 558 38,900 -840 Descending Seattle Center
05:35PM 47.8342 -116.6344 135° Southeast 503 579 38,000 -540 Descending Seattle Center
05:36PM 47.6964 -116.6639 188° South 509 586 37,900  Descending Seattle Center
05:37PM 47.6347 -116.8256 241° Southwest 462 532 38,000  Climbing Seattle Center
05:38PM 47.6469 -117.0319 275° West 442 509 37,900 -60 Descending Seattle Center
05:39PM 47.6589 -117.2097 276° West 437 503 37,900  Level Seattle Center
05:40PM 47.6700 -117.3842 275° West 437 503 38,000  Climbing Seattle Center
05:41PM 47.6822 -117.5642 276° West 441 507 38,000 -60 Level Seattle Center
05:42PM 47.6931 -117.7453 275° West 444 511 37,900 -60 Descending Seattle Center
05:43PM 47.7044 -117.9275 275° West 445 512 37,900  Level Seattle Center
05:44PM 47.7150 -118.1097 275° West 445 512 38,000  Climbing Seattle Center
05:50PM 47.7758 -119.2360 275° West 449 517 38,000  Level FlightAware ADS-B
05:51PM 47.7802 -119.3290 274° West 450 518 38,000  Level FlightAware ADS-B
05:51PM 47.7848 -119.4240 274° West 450 518 38,000  Level FlightAware ADS-B
05:52PM 47.7890 -119.5160 274° West 448 516 38,000 -540 Level FlightAware ADS-B
05:52PM 47.7933 -119.6100 274° West 443 510 37,500 -1,800 Descending FlightAware ADS-B
05:53PM 47.7974 -119.7000 274° West 443 510 36,200 -3,000 Descending FlightAware ADS-B
05:53PM 47.8034 -119.8370 274° West 450 518 33,800 -3,300 Descending FlightAware ADS-B
05:54PM 47.8074 -119.9300 274° West 453 521 32,100 -3,000 Descending FlightAware ADS-B
05:54PM 47.8115 -120.0240 274° West 446 513 30,800 -2,460 Descending FlightAware ADS-B
05:55PM 47.8152 -120.1170 273° West 436 502 29,600 -2,340 Descending FlightAware ADS-B
05:55PM 47.8190 -120.2100 274° West 426 490 28,400 -2,280 Descending FlightAware ADS-B
05:56PM 47.8227 -120.3030 273° West 421 484 27,200 -2,220 Descending FlightAware ADS-B
05:56PM 47.8262 -120.3910 273° West 421 484 26,100 -2,220 Descending FlightAware ADS-B
05:57PM 47.8295 -120.4770 273° West 412 474 25,000 -2,220 Descending FlightAware ADS-B
05:57PM 47.8327 -120.5630 273° West 402 463 23,900 -2,100 Descending FlightAware ADS-B
05:58PM 47.8357 -120.6450 273° West 394 453 22,900 -2,100 Descending FlightAware ADS-B
05:58PM 47.8368 -120.6750 273° West 389 448 22,500 -2,220 Descending FlightAware ADS-B (CYWH)
05:58PM 47.8386 -120.7250 273° West 385 443 21,800 -2,100 Descending FlightAware ADS-B
05:59PM 47.8414 -120.8040 273° West 386 444 20,800 -2,100 Descending FlightAware ADS-B
05:59PM 47.8441 -120.8840 273° West 386 444 19,700 -2,100 Descending FlightAware ADS-B
06:00PM 47.8470 -120.9650 273° West 391 450 18,700 -2,220 Descending FlightAware ADS-B
06:00PM 47.8496 -121.0470 273° West 397 457 17,500 -2,700 Descending FlightAware ADS-B
06:01PM 47.8521 -121.1310 273° West 402 463 16,000 -2,640 Descending FlightAware ADS-B
06:01PM 47.8548 -121.2120 273° West 396 456 14,900 -2,220 Descending FlightAware ADS-B
06:02PM 47.8602 -121.2930 276° West 385 443 13,800 -2,100 Descending FlightAware ADS-B
06:02PM 47.8659 -121.3690 276° West 376 433 12,800 -2,160 Descending FlightAware ADS-B
06:03PM 47.8710 -121.4470 276° West 368 423 11,700 -1,620 Descending FlightAware ADS-B
06:03PM 47.8757 -121.5220 275° West 347 399 11,200 -840 Descending FlightAware ADS-B
06:04PM 47.8797 -121.5910 275° West 322 371 10,900 -540 Descending FlightAware ADS-B
06:04PM 47.8835 -121.6550 275° West 299 344 10,700 -480 Descending FlightAware ADS-B
06:05PM 47.8842 -121.6730 273° West 294 338 10,600 -480 Descending FlightAware ADS-B
06:05PM 47.8836 -121.6830 265° West 294 338 10,600  Level FlightAware ADS-B
06:05PM 47.8827 -121.6900 259° West 294 338 10,600 -780 Level FlightAware ADS-B
06:05PM 47.8810 -121.6980 252° West 296 341 10,500 -1,140 Descending FlightAware ADS-B
06:05PM 47.8771 -121.7110 246° West 300 345 10,400 -600 Descending FlightAware ADS-B
06:05PM 47.8745 -121.7170 237° Southwest 300 345 10,400 -780 Level FlightAware ADS-B
06:05PM 47.8708 -121.7240 232° Southwest 301 346 10,300 -1,320 Descending FlightAware ADS-B
06:05PM 47.8564 -121.7450 224° Southwest 301 346 10,000 -1,380 Descending FlightAware ADS-B
06:05PM 47.8517 -121.7500 216° Southwest 302 348 9,900 -1,500 Descending FlightAware ADS-B
06:05PM 47.8468 -121.7550 214° Southwest 302 348 9,800 -1,380 Descending FlightAware ADS-B
06:06PM 47.8414 -121.7600 212° Southwest 302 348 9,700 -1,500 Descending FlightAware ADS-B
06:06PM 47.8325 -121.7660 204° Southwest 301 346 9,500 -1,680 Descending FlightAware ADS-B
06:06PM 47.8130 -121.7770 201° Southwest 303 349 9,100 -1,440 Descending FlightAware ADS-B
06:06PM 47.7928 -121.7880 200° South 302 348 8,800 -1,200 Descending FlightAware ADS-B
06:06PM 47.7729 -121.7990 200° South 297 342 8,500 -1,200 Descending FlightAware ADS-B
06:07PM 47.7532 -121.8110 202° Southwest 295 339 8,200 -1,200 Descending FlightAware ADS-B
06:07PM 47.7348 -121.8210 200° South 289 333 7,900 -1,200 Descending FlightAware ADS-B
06:07PM 47.7153 -121.8320 201° Southwest 282 325 7,600 -1,200 Descending FlightAware ADS-B
06:07PM 47.6965 -121.8430 201° Southwest 278 320 7,300 -1,320 Descending FlightAware ADS-B
06:08PM 47.6776 -121.8530 200° South 275 316 6,900 -1,320 Descending FlightAware ADS-B
06:08PM 47.6588 -121.8640 202° Southwest 271 312 6,600 -1,020 Descending FlightAware ADS-B
06:08PM 47.6423 -121.8730 200° South 268 308 6,400 -1,020 Descending FlightAware ADS-B
06:08PM 47.6309 -121.8800 202° Southwest 267 307 6,200 -1,440 Descending FlightAware ADS-B
06:09PM 47.6134 -121.8910 203° Southwest 266 306 5,800 -1,380 Descending FlightAware ADS-B
06:09PM 47.5957 -121.9020 203° Southwest 265 305 5,500 -1,200 Descending FlightAware ADS-B
06:09PM 47.5787 -121.9130 204° Southwest 263 303 5,200 -1,200 Descending FlightAware ADS-B
06:09PM 47.5617 -121.9230 202° Southwest 261 300 4,900 -1,200 Descending FlightAware ADS-B
06:10PM 47.5444 -121.9340 203° Southwest 259 298 4,600 -780 Descending FlightAware ADS-B
06:10PM 47.5277 -121.9440 202° Southwest 251 289 4,500 -240 Descending FlightAware ADS-B
06:10PM 47.5117 -121.9530 201° Southwest 238 274 4,500  Level FlightAware ADS-B
06:10PM 47.4981 -121.9620 204° Southwest 236 272 4,500 -480 Level FlightAware ADS-B
06:11PM 47.4827 -121.9710 202° Southwest 233 268 4,300 -720 Descending FlightAware ADS-B
06:11PM 47.4735 -121.9770 204° Southwest 228 262 4,200 -600 Descending FlightAware ADS-B
06:11PM 47.4639 -121.9830 203° Southwest 223 257 4,100 -480 Descending FlightAware ADS-B
06:11PM 47.4605 -121.9860 211° Southwest 222 255 4,100 -900 Level FlightAware ADS-B
06:11PM 47.4576 -121.9890 215° Southwest 220 253 4,000 -1,020 Descending FlightAware ADS-B
06:11PM 47.4554 -121.9910 212° Southwest 217 250 4,000  Level FlightAware ADS-B
06:11PM 47.4521 -121.9960 226° Southwest 214 246 4,000  Level FlightAware ADS-B
06:11PM 47.4499 -122.0000 231° Southwest 212 244 4,000 -1,020 Level FlightAware ADS-B
06:11PM 47.4480 -122.0030 227° Southwest 211 243 3,900 -1,140 Descending FlightAware ADS-B
06:12PM 47.4400 -122.0180 232° Southwest 206 237 3,700 -720 Descending FlightAware ADS-B
06:12PM 47.4335 -122.0310 234° Southwest 202 232 3,600 -720 Descending FlightAware ADS-B
06:12PM 47.4309 -122.0370 237° Southwest 199 229 3,500 -720 Descending FlightAware ADS-B
06:12PM 47.4292 -122.0410 238° Southwest 198 228 3,500 -1,020 Level FlightAware ADS-B
06:12PM 47.4255 -122.0510 241° Southwest 197 227 3,300 -1,260 Descending FlightAware ADS-B
06:12PM 47.4190 -122.0690 242° Southwest 197 227 3,000 -1,200 Descending FlightAware ADS-B
06:12PM 47.4146 -122.0820 243° Southwest 198 228 2,800 -960 Descending FlightAware ADS-B
06:13PM 47.4087 -122.1000 244° Southwest 197 227 2,600 -900 Descending FlightAware ADS-B
06:13PM 47.4064 -122.1080 247° West 198 228 2,500 -600 Descending FlightAware ADS-B
06:13PM 47.4052 -122.1120 246° West 198 228 2,500  Level FlightAware ADS-B
06:13PM 47.4040 -122.1190 256° West 199 229 2,500  Level FlightAware ADS-B
06:13PM 47.4034 -122.1230 258° West 199 229 2,500  Level FlightAware ADS-B
06:13PM 47.4014 -122.1400 260° West 192 221 2,500  Level FlightAware ADS-B
06:13PM 47.4009 -122.1450 262° West 188 216 2,500 -780 Level FlightAware ADS-B
06:13PM 47.4006 -122.1510 266° West 185 213 2,400 -780 Descending FlightAware ADS-B
06:13PM 47.4007 -122.1550 272° West 184 212 2,400 -900 Level FlightAware ADS-B
06:13PM 47.4009 -122.1590 274° West 183 211 2,300 -900 Descending FlightAware ADS-B
06:14PM 47.4015 -122.1640 280° West 183 211 2,300  Level FlightAware ADS-B
06:14PM 47.4025 -122.1680 290° West 182 209 2,300  Level FlightAware ADS-B
06:14PM 47.4038 -122.1730 291° West 182 209 2,300  Level FlightAware ADS-B
06:14PM 47.4059 -122.1790 297° West 181 208 2,300  Level FlightAware ADS-B
06:14PM 47.4072 -122.1820 303° West 179 206 2,300 -900 Level FlightAware ADS-B
06:14PM 47.4089 -122.1860 302° West 176 203 2,200 -720 Descending FlightAware ADS-B
06:14PM 47.4113 -122.1910 305° West 173 199 2,200  Level FlightAware ADS-B
06:14PM 47.4134 -122.1940 316° Northwest 172 198 2,200 -780 Level FlightAware ADS-B
06:14PM 47.4197 -122.2040 313° West 170 196 2,000 -720 Descending FlightAware ADS-B
06:14PM 47.4229 -122.2090 313° West 169 194 2,000 -720 Level FlightAware ADS-B
06:14PM 47.4249 -122.2120 315° West 168 193 1,900 -900 Descending FlightAware ADS-B
06:14PM 47.4267 -122.2140 323° Northwest 168 193 1,900 -780 Level FlightAware ADS-B
06:14PM 47.4300 -122.2170 328° Northwest 168 193 1,800 -1,140 Descending FlightAware ADS-B
06:15PM 47.4334 -122.2210 321° Northwest 168 193 1,700 -1,200 Descending FlightAware ADS-B
06:15PM 47.4396 -122.2260 331° Northwest 164 189 1,500 -1,020 Descending FlightAware ADS-B
06:15PM 47.4493 -122.2340 331° Northwest 159 183 1,300 -960 Descending FlightAware ADS-B
06:15PM 47.4554 -122.2390 331° Northwest 156 180 1,100 -1,020 Descending FlightAware ADS-B
06:15PM 47.4640 -122.2470 328° Northwest 151 174 900 -900 Descending FlightAware ADS-B
06:15PM 47.4682 -122.2500 334° Northwest 150 173 800 -720 Descending FlightAware ADS-B
06:16PM 47.4744 -122.2560 327° Northwest 147 169 700 -780 Descending FlightAware ADS-B
06:16PM 47.4856 -122.2650 331° Northwest 141 162 400 -240 Descending FlightAware ADS-B
06:17PM 47.5014 -122.2792 331° Northwest 143 165 500 120 Climbing Seattle Center
06:17PM 47.5092 -122.2861 329° Northwest 139 160 500 36,840 Level Seattle Center
06:18PM 47.5353 -122.3081 330° Northwest 137 158 38,000 45,900 Climbing Seattle Center